createdAt,value
2023-03-17T04:12:18.718Z,989.56
2023-03-17T04:12:52.962Z,989.52
2023-03-17T04:13:52.869Z,989.49
2023-03-17T04:14:52.821Z,989.50
2023-03-17T04:15:52.864Z,989.47
2023-03-17T04:16:52.805Z,989.50
2023-03-17T04:17:52.849Z,989.44
2023-03-17T04:18:52.870Z,989.38
2023-03-17T04:19:52.802Z,989.39
2023-03-17T04:20:52.787Z,989.31
2023-03-17T04:21:54.658Z,989.35
2023-03-17T04:22:53.767Z,989.29
2023-03-17T04:23:52.766Z,989.41
2023-03-17T04:24:52.717Z,989.38
2023-03-17T04:25:52.714Z,989.44
2023-03-17T04:26:52.691Z,989.43
2023-03-17T04:27:52.724Z,989.40
2023-03-17T04:28:52.741Z,989.46
2023-03-17T04:29:52.722Z,989.45
2023-03-17T04:30:52.725Z,989.40
2023-03-17T04:31:52.740Z,989.40
2023-03-17T04:32:52.713Z,989.39
2023-03-17T04:33:52.670Z,989.34
2023-03-17T04:34:52.676Z,989.36
2023-03-17T04:35:52.745Z,989.24
2023-03-17T04:36:52.623Z,989.21
2023-03-17T04:37:52.655Z,989.06
2023-03-17T04:38:52.630Z,989.17
2023-03-17T04:39:52.641Z,989.16
2023-03-17T04:40:52.597Z,989.26
2023-03-17T04:41:52.609Z,989.31
2023-03-17T04:42:52.630Z,989.30
2023-03-17T04:43:52.636Z,989.27
2023-03-17T04:44:52.584Z,989.35
2023-03-17T04:45:52.700Z,989.33
2023-03-17T04:46:52.714Z,989.40
2023-03-17T04:47:52.579Z,989.31
2023-03-17T04:48:52.589Z,989.38
2023-03-17T04:49:52.563Z,989.38
2023-03-17T04:50:52.561Z,989.39
2023-03-17T04:51:52.540Z,989.39
2023-03-17T04:52:53.485Z,989.41
2023-03-17T04:53:52.606Z,989.38
2023-03-17T04:54:52.554Z,989.47
2023-03-17T04:55:52.541Z,989.34
2023-03-17T04:56:53.535Z,989.38
2023-03-17T04:57:52.538Z,989.32
2023-03-17T04:58:52.559Z,989.31
2023-03-17T04:59:52.522Z,989.30
2023-03-17T05:00:52.533Z,989.32
2023-03-17T05:01:52.545Z,989.30
2023-03-17T05:02:52.486Z,989.29
2023-03-17T05:03:52.474Z,989.33
2023-03-17T05:04:52.471Z,989.38
2023-03-17T05:05:52.537Z,989.40
2023-03-17T05:06:52.461Z,989.38
2023-03-17T05:07:52.436Z,989.38
2023-03-17T05:08:52.482Z,989.42
2023-03-17T05:09:52.983Z,989.46
2023-03-17T05:10:52.399Z,989.48
2023-03-17T05:11:52.437Z,989.47
2023-03-17T05:12:52.422Z,989.42
2023-03-17T05:13:52.403Z,989.38
2023-03-17T05:14:52.400Z,989.41
2023-03-17T05:15:52.395Z,989.37
2023-03-17T05:16:52.445Z,989.40
2023-03-17T05:17:52.345Z,989.37
2023-03-17T05:18:52.362Z,989.33
2023-03-17T05:19:52.373Z,989.37
2023-03-17T05:20:52.351Z,989.42
2023-03-17T05:21:52.361Z,989.36
2023-03-17T05:22:52.984Z,989.31
2023-03-17T05:23:54.911Z,989.35
2023-03-17T05:24:53.311Z,989.34
2023-03-17T05:25:52.316Z,989.35
2023-03-17T05:26:52.294Z,989.32
2023-03-17T05:27:52.316Z,989.31
2023-03-17T05:28:52.291Z,989.30
2023-03-17T05:29:52.277Z,989.23
2023-03-17T05:30:52.315Z,989.22
2023-03-17T05:31:52.291Z,989.22
2023-03-17T05:32:52.391Z,989.22
2023-03-17T05:33:52.254Z,989.20
2023-03-17T05:34:52.283Z,989.26
2023-03-17T05:35:52.415Z,989.17
2023-03-17T05:36:52.260Z,989.18
2023-03-17T05:37:52.216Z,989.18
2023-03-17T05:38:52.208Z,989.18
2023-03-17T05:39:52.231Z,989.21
2023-03-17T05:40:52.218Z,989.14
2023-03-17T05:41:52.243Z,989.16
2023-03-17T05:42:52.214Z,989.20
2023-03-17T05:43:52.205Z,989.21
2023-03-17T05:44:52.202Z,989.17
2023-03-17T05:45:52.251Z,989.25
2023-03-17T05:46:52.200Z,989.32
2023-03-17T05:47:52.185Z,989.31
2023-03-17T05:48:52.161Z,989.33
2023-03-17T05:49:52.164Z,989.33
2023-03-17T05:50:52.167Z,989.29
2023-03-17T05:51:52.105Z,989.31
2023-03-17T05:52:52.119Z,989.28
2023-03-17T05:53:52.119Z,989.32
2023-03-17T05:54:52.092Z,989.31
2023-03-17T05:55:52.117Z,989.30
2023-03-17T05:56:52.090Z,989.31
2023-03-17T05:57:52.096Z,989.28
2023-03-17T05:58:52.090Z,989.27
2023-03-17T05:59:52.134Z,989.26
2023-03-17T06:00:52.061Z,989.30
2023-03-17T06:01:52.070Z,989.25
2023-03-17T06:02:52.104Z,989.12
2023-03-17T06:03:52.067Z,989.12
2023-03-17T06:04:52.075Z,989.13
2023-03-17T06:05:52.046Z,989.08
2023-03-17T06:06:52.024Z,989.14
2023-03-17T06:07:56.210Z,989.16
2023-03-17T06:08:53.056Z,989.11
2023-03-17T06:09:52.074Z,989.06
2023-03-17T06:10:52.026Z,989.03
2023-03-17T06:11:51.996Z,989.10
2023-03-17T06:12:51.984Z,989.12
2023-03-17T06:13:51.976Z,989.14
2023-03-17T06:14:52.028Z,989.10
2023-03-17T06:15:52.004Z,989.13
2023-03-17T06:16:51.989Z,989.07
2023-03-17T06:17:51.965Z,989.16
2023-03-17T06:18:51.957Z,989.18
2023-03-17T06:19:51.985Z,989.20
2023-03-17T06:20:51.928Z,989.20
2023-03-17T06:21:51.944Z,989.18
2023-03-17T06:23:04.028Z,989.16
2023-03-17T06:23:53.891Z,989.17
2023-03-17T06:24:51.973Z,989.18
2023-03-17T06:25:51.919Z,989.20
2023-03-17T06:26:51.894Z,989.23
2023-03-17T06:27:51.913Z,989.28
2023-03-17T06:28:51.900Z,989.24
2023-03-17T06:29:51.904Z,989.26
2023-03-17T06:30:52.894Z,989.23
2023-03-17T06:31:51.880Z,989.26
2023-03-17T06:32:51.963Z,989.21
2023-03-17T06:33:51.879Z,989.23
2023-03-17T06:34:51.900Z,989.20
2023-03-17T06:35:51.891Z,989.20
2023-03-17T06:36:51.847Z,989.25
2023-03-17T06:37:51.857Z,989.27
2023-03-17T06:38:51.840Z,989.35
2023-03-17T06:39:51.815Z,989.36
2023-03-17T06:40:51.827Z,989.33
2023-03-17T06:41:51.820Z,989.33
2023-03-17T06:42:51.805Z,989.28
2023-03-17T06:43:51.785Z,989.36
2023-03-17T06:44:51.812Z,989.28
2023-03-17T06:45:51.794Z,989.31
2023-03-17T06:46:52.826Z,989.32
2023-03-17T06:47:51.774Z,989.32
2023-03-17T06:48:51.739Z,989.36
2023-03-17T06:49:51.740Z,989.27
2023-03-17T06:50:51.729Z,989.32
2023-03-17T06:51:51.718Z,989.25
2023-03-17T06:52:51.783Z,989.23
2023-03-17T06:53:51.758Z,989.23
2023-03-17T06:54:51.715Z,989.24
2023-03-17T06:55:51.684Z,989.23
2023-03-17T06:56:51.682Z,989.25
2023-03-17T06:57:51.707Z,989.23
2023-03-17T06:58:51.720Z,989.22
2023-03-17T06:59:51.670Z,989.22
2023-03-17T07:00:52.659Z,989.26
2023-03-17T07:01:51.713Z,989.31
2023-03-17T07:02:51.671Z,989.32
2023-03-17T07:03:51.633Z,989.33
2023-03-17T07:04:51.713Z,989.38
2023-03-17T07:05:51.619Z,989.32
2023-03-17T07:06:51.621Z,989.33
2023-03-17T07:07:51.634Z,989.32
2023-03-17T07:08:51.643Z,989.33
2023-03-17T07:09:51.616Z,989.30
2023-03-17T07:10:51.603Z,989.33
2023-03-17T07:11:51.585Z,989.26
2023-03-17T07:12:51.608Z,989.36
2023-03-17T07:13:51.580Z,989.36
2023-03-17T07:14:51.559Z,989.37
2023-03-17T07:15:53.864Z,989.34
2023-03-17T07:16:51.695Z,989.40
2023-03-17T07:17:51.576Z,989.38
2023-03-17T07:18:51.556Z,989.35
2023-03-17T07:19:51.558Z,989.36
2023-03-17T07:20:51.577Z,989.31
2023-03-17T07:21:51.527Z,989.31
2023-03-17T07:22:51.575Z,989.27
2023-03-17T07:23:51.526Z,989.33
2023-03-17T07:24:51.551Z,989.30
2023-03-17T07:25:51.510Z,989.31
2023-03-17T07:26:51.469Z,989.28
2023-03-17T07:27:51.496Z,989.28
2023-03-17T07:28:51.496Z,989.24
2023-03-17T07:29:51.481Z,989.24
2023-03-17T07:30:51.466Z,989.31
2023-03-17T07:31:51.559Z,989.29
2023-03-17T07:32:51.520Z,989.35
2023-03-17T07:33:51.441Z,989.32
2023-03-17T07:34:51.457Z,989.29
2023-03-17T07:35:51.448Z,989.27
2023-03-17T07:36:51.396Z,989.25
2023-03-17T07:37:51.431Z,989.29
2023-03-17T07:38:51.416Z,989.27
2023-03-17T07:39:51.456Z,989.26
2023-03-17T07:40:51.422Z,989.30
2023-03-17T07:41:51.367Z,989.29
2023-03-17T07:42:51.405Z,989.29
2023-03-17T07:43:51.390Z,989.36
2023-03-17T07:44:51.401Z,989.33
2023-03-17T07:45:51.372Z,989.35
2023-03-17T07:46:51.365Z,989.36
2023-03-17T07:47:51.318Z,989.38
2023-03-17T07:48:51.371Z,989.35
2023-03-17T07:49:51.382Z,989.35
2023-03-17T07:50:51.349Z,989.29
2023-03-17T07:51:51.300Z,989.24
2023-03-17T07:52:51.308Z,989.30
2023-03-17T07:53:51.302Z,989.21
2023-03-17T07:54:51.299Z,989.25
2023-03-17T07:55:51.288Z,989.16
2023-03-17T07:56:51.297Z,989.16
2023-03-17T07:57:51.328Z,989.14
2023-03-17T07:58:51.303Z,989.15
2023-03-17T07:59:51.309Z,989.11
2023-03-17T08:00:51.249Z,989.12
2023-03-17T08:01:51.262Z,989.09
2023-03-17T08:03:07.029Z,989.06
2023-03-17T08:03:53.289Z,989.05
2023-03-17T08:04:51.255Z,989.11
2023-03-17T08:05:51.251Z,989.10
2023-03-17T08:06:51.225Z,989.10
2023-03-17T08:07:51.217Z,989.13
2023-03-17T08:08:51.178Z,989.15
2023-03-17T08:09:52.202Z,989.16
2023-03-17T08:10:51.231Z,989.11
2023-03-17T08:11:51.210Z,989.10
2023-03-17T08:12:51.179Z,989.05
2023-03-17T08:13:51.167Z,989.03
2023-03-17T08:14:51.212Z,989.09
2023-03-17T08:15:51.152Z,989.05
2023-03-17T08:16:51.275Z,989.05
2023-03-17T08:17:51.141Z,989.04
2023-03-17T08:18:51.149Z,988.99
2023-03-17T08:19:51.154Z,988.92
2023-03-17T08:20:51.132Z,989.02
2023-03-17T08:21:51.113Z,989.01
2023-03-17T08:22:51.096Z,988.94
2023-03-17T08:23:51.115Z,988.92
2023-03-17T08:24:51.103Z,988.92
2023-03-17T08:25:52.111Z,988.94
2023-03-17T08:26:51.154Z,988.90
2023-03-17T08:27:51.059Z,988.96
2023-03-17T08:28:51.086Z,988.91
2023-03-17T08:29:51.107Z,988.91
2023-03-17T08:30:51.152Z,988.90
2023-03-17T08:31:51.122Z,988.90
2023-03-17T08:32:51.106Z,988.88
2023-03-17T08:33:51.030Z,988.98
2023-03-17T08:34:51.043Z,988.96
2023-03-17T08:35:51.061Z,988.98
2023-03-17T08:36:50.998Z,988.90
2023-03-17T08:37:51.021Z,988.86
2023-03-17T08:38:51.127Z,988.81
2023-03-17T08:39:50.985Z,988.82
2023-03-17T08:40:51.035Z,988.86
2023-03-17T08:41:51.017Z,988.82
2023-03-17T08:42:50.955Z,988.89
2023-03-17T08:43:51.018Z,988.81
2023-03-17T08:44:50.962Z,988.81
2023-03-17T08:45:51.012Z,988.80
2023-03-17T08:46:50.978Z,988.81
2023-03-17T08:47:50.966Z,988.84
2023-03-17T08:48:50.954Z,988.84
2023-03-17T08:49:50.912Z,988.84
2023-03-17T08:50:50.905Z,988.83
2023-03-17T08:51:50.946Z,988.83
2023-03-17T08:52:50.915Z,988.84
2023-03-17T08:53:50.886Z,988.77
2023-03-17T08:54:50.888Z,988.80
2023-03-17T08:55:50.903Z,988.80
2023-03-17T08:56:50.899Z,988.80
2023-03-17T08:57:50.877Z,988.73
2023-03-17T08:58:50.904Z,988.75
2023-03-17T08:59:51.839Z,988.69
2023-03-17T09:00:50.867Z,988.64
2023-03-17T09:01:50.886Z,988.68
2023-03-17T09:02:50.899Z,988.64
2023-03-17T09:03:50.815Z,988.62
2023-03-17T09:04:50.799Z,988.61
2023-03-17T09:05:50.861Z,988.57
2023-03-17T09:07:02.725Z,988.65
2023-03-17T09:07:52.880Z,988.64
2023-03-17T09:08:50.772Z,988.64
2023-03-17T09:09:50.765Z,988.67
2023-03-17T09:10:51.855Z,988.68
2023-03-17T09:11:50.795Z,988.67
2023-03-17T09:12:50.779Z,988.70
2023-03-17T09:13:50.752Z,988.70
2023-03-17T09:14:50.733Z,988.62
2023-03-17T09:15:52.053Z,988.57
2023-03-17T09:16:51.762Z,988.53
2023-03-17T09:17:51.743Z,988.51
2023-03-17T09:18:50.780Z,988.53
2023-03-17T09:19:50.737Z,988.52
2023-03-17T09:20:50.748Z,988.50
2023-03-17T09:21:50.708Z,988.57
2023-03-17T09:22:50.694Z,988.58
2023-03-17T09:23:50.720Z,988.60
2023-03-17T09:24:50.695Z,988.53
2023-03-17T09:25:50.711Z,988.56
2023-03-17T09:26:50.664Z,988.46
2023-03-17T09:27:50.641Z,988.55
2023-03-17T09:28:50.624Z,988.53
2023-03-17T09:29:50.662Z,988.49
2023-03-17T09:30:50.705Z,988.50
2023-03-17T09:31:50.643Z,988.61
2023-03-17T09:32:50.670Z,988.55
2023-03-17T09:33:50.634Z,988.57
2023-03-17T09:34:51.685Z,988.63
2023-03-17T09:35:51.621Z,988.53
2023-03-17T09:36:50.609Z,988.63
2023-03-17T09:37:50.633Z,988.56
2023-03-17T09:38:50.577Z,988.62
2023-03-17T09:39:50.596Z,988.55
2023-03-17T09:40:50.604Z,988.57
2023-03-17T09:41:50.540Z,988.56
2023-03-17T09:42:50.566Z,988.57
2023-03-17T09:43:50.533Z,988.52
2023-03-17T09:44:50.557Z,988.50
2023-03-17T09:45:50.554Z,988.38
2023-03-17T09:46:50.637Z,988.45
2023-03-17T09:47:50.488Z,988.44
2023-03-17T09:48:50.515Z,988.44
2023-03-17T09:49:51.312Z,988.48
2023-03-17T09:50:50.518Z,988.51
2023-03-17T09:51:50.502Z,988.43
2023-03-17T09:52:51.523Z,988.37
2023-03-17T09:53:51.488Z,988.38
2023-03-17T09:54:50.477Z,988.42
2023-03-17T09:55:51.412Z,988.34
2023-03-17T09:56:50.478Z,988.46
2023-03-17T09:57:50.460Z,988.39
2023-03-17T09:58:51.343Z,988.40
2023-03-17T09:59:51.482Z,988.39
2023-03-17T10:00:50.464Z,988.44
2023-03-17T10:01:50.472Z,988.46
2023-03-17T10:02:50.419Z,988.45
2023-03-17T10:03:50.399Z,988.46
2023-03-17T10:04:50.501Z,988.47
2023-03-17T10:05:50.441Z,988.43
2023-03-17T10:06:50.369Z,988.43
2023-03-17T10:07:50.377Z,988.40
2023-03-17T10:08:50.369Z,988.37
2023-03-17T10:09:50.375Z,988.38
2023-03-17T10:10:50.470Z,988.37
